createdAt,value
2023-04-02T00:01:55.242Z,100994.66
2023-04-02T00:04:21.899Z,100996.25
2023-04-02T00:06:48.954Z,100985.00
2023-04-02T00:09:15.121Z,100967.50
2023-04-02T00:11:41.948Z,100955.44
2023-04-02T00:14:17.452Z,100942.75
2023-04-02T00:16:43.799Z,100937.81
2023-04-02T00:19:14.778Z,100950.81
2023-04-02T00:21:41.001Z,100947.28
2023-04-02T00:24:10.581Z,100958.84
2023-04-02T00:26:40.401Z,100966.06
2023-04-02T00:29:06.687Z,100964.13
2023-04-02T00:31:33.201Z,100969.88
2023-04-02T00:33:59.544Z,100960.25
2023-04-02T00:36:25.879Z,100950.94
2023-04-02T00:38:52.092Z,100949.16
2023-04-02T00:41:20.692Z,100953.34
2023-04-02T00:43:46.941Z,100961.69
2023-04-02T00:46:16.949Z,100958.13
2023-04-02T00:48:43.099Z,100957.16
2023-04-02T00:51:12.203Z,100946.13
2023-04-02T00:53:38.426Z,100955.44
2023-04-02T00:56:04.699Z,100954.94
2023-04-02T00:58:34.437Z,100953.81
2023-04-02T01:01:00.834Z,100954.72
2023-04-02T01:03:28.269Z,100947.47
2023-04-02T01:06:02.251Z,100938.31
2023-04-02T01:08:37.575Z,100930.84
2023-04-02T01:11:22.382Z,100914.53
2023-04-02T01:13:51.366Z,100921.72
2023-04-02T01:16:32.587Z,100910.28
2023-04-02T01:19:06.718Z,100911.56
2023-04-02T01:21:32.875Z,100905.47
2023-04-02T01:24:02.810Z,100901.34
2023-04-02T01:26:47.811Z,100914.38
2023-04-02T01:29:20.564Z,100920.31
2023-04-02T01:31:46.876Z,100922.72
2023-04-02T01:34:14.306Z,100925.72
2023-04-02T01:37:01.946Z,100918.78
2023-04-02T01:39:35.009Z,100914.25
2023-04-02T01:42:15.941Z,100907.22
2023-04-02T01:44:51.923Z,100899.97
2023-04-02T01:47:19.458Z,100893.72
2023-04-02T01:49:45.689Z,100901.81
2023-04-02T01:52:18.926Z,100881.09
2023-04-02T01:54:45.447Z,100867.63
2023-04-02T01:57:11.667Z,100865.34
2023-04-02T01:59:37.943Z,100866.16
2023-04-02T02:02:04.603Z,100857.56
2023-04-02T02:04:30.913Z,100840.09
2023-04-02T02:06:57.774Z,100854.72
2023-04-02T02:09:25.324Z,100839.97
2023-04-02T02:11:51.539Z,100816.63
2023-04-02T02:14:18.808Z,100796.06
2023-04-02T02:16:45.685Z,100762.25
2023-04-02T02:19:19.897Z,100717.50
2023-04-02T02:21:47.188Z,100686.00
2023-04-02T02:24:16.402Z,100687.09
2023-04-02T02:26:42.601Z,100699.69
2023-04-02T02:29:09.971Z,100735.84
2023-04-02T02:31:36.186Z,100727.81
2023-04-02T02:34:03.144Z,100728.47
2023-04-02T02:36:39.238Z,100739.88
2023-04-02T02:39:15.977Z,100759.66
2023-04-02T02:41:42.136Z,100786.56
2023-04-02T02:44:08.311Z,100800.09
2023-04-02T02:46:35.039Z,100781.44
2023-04-02T02:49:01.644Z,100824.59
2023-04-02T02:51:28.860Z,100838.78
2023-04-02T02:53:56.098Z,100825.91
2023-04-02T02:56:22.305Z,100853.44
2023-04-02T02:58:48.532Z,100883.00
2023-04-02T03:01:14.745Z,100904.41
2023-04-02T03:03:41.094Z,100906.63
2023-04-02T03:06:08.745Z,100923.41
2023-04-02T03:08:36.332Z,100946.28
2023-04-02T03:11:05.241Z,100954.81
2023-04-02T03:13:32.085Z,100962.22
2023-04-02T03:15:58.624Z,100984.47
2023-04-02T03:18:42.224Z,101026.44
2023-04-02T03:21:28.278Z,101022.41
2023-04-02T03:23:59.243Z,101036.25
2023-04-02T03:26:37.586Z,101018.66
2023-04-02T03:29:14.997Z,100987.72
2023-04-02T03:31:53.627Z,100943.00
2023-04-02T03:34:24.608Z,100937.19
2023-04-02T03:37:09.671Z,100883.66
2023-04-02T03:39:46.580Z,100836.81
2023-04-02T03:42:15.067Z,100801.25
2023-04-02T03:44:45.916Z,100779.69
2023-04-02T03:47:13.860Z,100766.19
2023-04-02T03:49:41.400Z,100751.53
2023-04-02T03:52:11.695Z,100760.78
2023-04-02T03:54:38.348Z,100763.00
2023-04-02T03:57:04.707Z,100729.78
2023-04-02T03:59:33.926Z,100702.91
2023-04-02T04:02:01.076Z,100690.28
2023-04-02T04:04:27.967Z,100742.47
2023-04-02T04:06:54.198Z,100716.91
2023-04-02T04:09:23.152Z,100689.38
2023-04-02T04:11:49.986Z,100684.88
2023-04-02T04:14:20.277Z,100689.19
2023-04-02T04:16:51.644Z,100686.56
2023-04-02T04:19:25.243Z,100686.81
2023-04-02T04:21:51.471Z,100728.97
2023-04-02T04:24:18.785Z,100724.91
2023-04-02T04:26:52.003Z,100752.94
2023-04-02T04:29:37.194Z,100793.28
2023-04-02T04:32:22.197Z,100785.56
2023-04-02T04:34:48.414Z,100806.50
2023-04-02T04:37:17.228Z,100812.38
2023-04-02T04:39:44.745Z,100817.44
2023-04-02T04:42:17.311Z,100864.75
2023-04-02T04:44:45.550Z,100870.00
2023-04-02T04:47:13.581Z,100889.78
2023-04-02T04:50:00.051Z,100892.66
2023-04-02T04:52:29.651Z,100887.16
2023-04-02T04:54:55.865Z,100887.97
2023-04-02T04:57:32.194Z,100880.25
2023-04-02T05:00:00.846Z,100904.81
2023-04-02T05:02:31.664Z,100927.09
2023-04-02T05:04:58.317Z,100990.41
2023-04-02T05:07:28.667Z,101038.19
2023-04-02T05:10:00.127Z,101043.63
2023-04-02T05:12:31.713Z,101063.66
2023-04-02T05:14:58.493Z,101064.56
2023-04-02T05:17:35.358Z,101056.94
2023-04-02T05:20:07.878Z,101040.16
2023-04-02T05:22:35.957Z,101000.88
2023-04-02T05:25:09.057Z,100966.63
2023-04-02T05:27:53.937Z,100917.44
2023-04-02T05:30:32.517Z,100912.97
2023-04-02T05:33:25.193Z,100929.19
2023-04-02T05:35:53.407Z,100854.66
2023-04-02T05:38:23.675Z,100821.88
2023-04-02T05:40:55.856Z,100820.56
2023-04-02T05:43:22.764Z,100858.56
2023-04-02T05:45:52.324Z,100865.16
2023-04-02T05:48:22.555Z,100878.84
2023-04-02T05:50:51.598Z,100878.53
2023-04-02T05:53:19.390Z,100892.50
2023-04-02T05:56:09.516Z,100886.38
2023-04-02T05:58:59.216Z,100885.75
2023-04-02T06:01:34.611Z,100875.78
2023-04-02T06:04:03.619Z,100874.91
2023-04-02T06:06:39.121Z,100891.59
2023-04-02T06:09:33.227Z,100915.25
2023-04-02T06:12:02.503Z,100943.31
2023-04-02T06:14:34.057Z,100971.69
2023-04-02T06:17:12.611Z,100977.56
2023-04-02T06:19:39.104Z,100947.06
2023-04-02T06:22:14.424Z,100951.16
2023-04-02T06:24:40.820Z,100925.44
2023-04-02T06:27:07.079Z,100931.91
2023-04-02T06:29:33.914Z,100911.81
2023-04-02T06:32:00.897Z,100854.66
2023-04-02T06:34:27.901Z,100780.84
2023-04-02T06:39:44.477Z,100757.19
2023-04-02T06:42:33.110Z,100700.78
2023-04-02T06:44:59.307Z,100676.63
2023-04-02T06:47:39.848Z,100694.09
2023-04-02T06:50:26.601Z,100628.19
2023-04-02T06:52:53.720Z,100591.28
2023-04-02T06:55:26.674Z,100597.34
2023-04-02T06:57:53.179Z,100620.19
2023-04-02T07:00:33.186Z,100563.09
2023-04-02T07:03:02.287Z,100520.56
2023-04-02T07:05:28.818Z,100656.53
2023-04-02T07:07:55.145Z,100649.38
2023-04-02T07:10:21.936Z,100724.44
2023-04-02T07:12:48.163Z,100741.72
2023-04-02T07:15:20.463Z,100801.31
2023-04-02T07:17:46.958Z,100833.84
2023-04-02T07:20:33.016Z,100881.19
2023-04-02T07:22:59.364Z,100777.84
2023-04-02T07:25:26.191Z,100837.03
2023-04-02T07:27:52.630Z,100784.94
2023-04-02T07:30:18.965Z,100672.53
2023-04-02T07:32:48.845Z,100595.19
2023-04-02T07:35:15.266Z,100516.31
2023-04-02T07:37:44.518Z,100374.19
2023-04-02T07:40:17.864Z,100277.28
2023-04-02T07:42:44.428Z,100133.72
2023-04-02T07:45:10.762Z,100258.31
2023-04-02T07:47:37.211Z,100217.91
2023-04-02T07:50:03.825Z,100160.09
2023-04-02T07:52:30.122Z,100235.69
2023-04-02T07:54:57.716Z,100309.53
2023-04-02T07:57:23.981Z,100206.97
2023-04-02T07:59:50.295Z,100023.91
2023-04-02T08:02:20.036Z,100104.16
2023-04-02T08:04:46.300Z,100150.25
2023-04-02T08:07:12.509Z,100034.72
2023-04-02T08:09:38.753Z,99950.44
2023-04-02T08:12:05.009Z,100171.63
2023-04-02T08:14:31.224Z,100365.41
2023-04-02T08:16:57.735Z,100620.44
2023-04-02T08:19:23.984Z,100648.28
2023-04-02T08:21:50.223Z,100553.81
2023-04-02T08:24:16.636Z,100760.50
2023-04-02T08:26:45.422Z,100826.78
2023-04-02T08:29:11.756Z,100837.81
2023-04-02T08:31:37.978Z,100580.66
2023-04-02T08:34:04.342Z,100471.81
2023-04-02T08:36:31.570Z,100319.91
2023-04-02T08:38:57.787Z,100296.81
2023-04-02T08:41:24.565Z,100315.53
2023-04-02T08:44:11.504Z,100217.75
2023-04-02T08:46:45.485Z,100107.53
2023-04-02T08:49:12.819Z,100279.38
2023-04-02T08:51:39.035Z,100365.75
2023-04-02T08:54:25.531Z,100383.66
2023-04-02T08:56:52.652Z,100179.50
2023-04-02T08:59:30.836Z,100136.13
2023-04-02T09:02:02.316Z,100232.81
2023-04-02T09:04:28.674Z,100230.50
2023-04-02T09:06:55.303Z,100079.88
2023-04-02T09:09:21.632Z,99982.25
2023-04-02T09:11:52.905Z,99881.53
2023-04-02T09:14:20.009Z,99986.84
2023-04-02T09:16:47.757Z,100157.38
2023-04-02T09:19:14.715Z,100441.44
2023-04-02T09:21:41.774Z,100141.16
2023-04-02T09:24:11.027Z,100137.38
2023-04-02T09:26:37.234Z,100168.69
2023-04-02T09:29:16.626Z,100163.00
2023-04-02T09:32:01.617Z,100090.41
2023-04-02T09:34:31.542Z,100132.19
2023-04-02T09:36:59.992Z,100322.16
2023-04-02T09:39:26.235Z,100450.41
2023-04-02T09:42:02.789Z,100527.75
2023-04-02T09:44:31.536Z,100414.56
2023-04-02T09:46:57.786Z,100572.72
2023-04-02T09:49:24.584Z,100538.56
2023-04-02T09:52:09.076Z,100578.25
2023-04-02T09:54:35.299Z,100329.47
2023-04-02T09:57:02.312Z,100433.28
2023-04-02T09:59:28.549Z,100539.31
2023-04-02T10:01:54.749Z,100584.09
2023-04-02T10:04:39.651Z,100512.66
2023-04-02T10:07:05.891Z,100603.63
2023-04-02T10:09:33.058Z,100356.81
2023-04-02T10:12:03.175Z,100118.47
2023-04-02T10:14:36.982Z,100255.13
2023-04-02T10:17:12.642Z,100326.38
2023-04-02T10:19:40.146Z,100302.97
2023-04-02T10:22:24.505Z,100417.78
2023-04-02T10:24:50.800Z,100598.03
2023-04-02T10:27:16.974Z,100710.22
2023-04-02T10:29:49.286Z,100565.06
2023-04-02T10:32:41.889Z,100463.06
2023-04-02T10:35:08.305Z,100182.72
2023-04-02T10:37:46.509Z,99919.06
2023-04-02T10:40:25.304Z,99883.59
2023-04-02T10:42:54.192Z,100071.19
2023-04-02T10:45:28.294Z,100358.97
2023-04-02T10:47:59.733Z,100098.44
2023-04-02T10:50:38.125Z,100245.09
2023-04-02T10:53:07.388Z,100247.31
2023-04-02T10:55:34.054Z,99895.47
2023-04-02T10:58:03.102Z,99718.75
2023-04-02T11:00:30.903Z,100138.28
2023-04-02T11:03:02.337Z,100204.22
2023-04-02T11:05:36.160Z,100199.81
2023-04-02T11:08:32.105Z,100320.91
2023-04-02T11:11:04.558Z,100377.94
2023-04-02T11:13:30.982Z,100261.25
2023-04-02T11:15:57.261Z,100413.09
2023-04-02T11:18:24.535Z,100439.06
2023-04-02T11:20:57.850Z,100604.63
2023-04-02T11:23:31.504Z,100319.00
2023-04-02T11:29:09.287Z,100194.94
2023-04-02T11:31:35.975Z,100117.81
2023-04-02T11:34:02.208Z,100265.28
2023-04-02T11:36:47.098Z,100218.19
2023-04-02T11:39:17.340Z,100238.78
2023-04-02T11:42:02.831Z,100444.94
2023-04-02T11:44:29.042Z,100444.41
2023-04-02T11:47:13.911Z,100252.81
2023-04-02T11:49:40.355Z,100223.69
2023-04-02T11:52:19.161Z,100033.16
2023-04-02T11:54:45.370Z,100022.41
2023-04-02T11:57:14.612Z,100065.75
2023-04-02T11:59:45.375Z,100165.94
2023-04-02T12:02:28.297Z,100193.72
2023-04-02T12:05:07.799Z,100430.94
2023-04-02T12:07:37.863Z,99986.34
2023-04-02T12:10:17.215Z,100079.94
2023-04-02T12:12:43.436Z,100416.00
2023-04-02T12:15:28.096Z,100171.69
2023-04-02T12:18:02.319Z,100171.72
2023-04-02T12:20:28.556Z,100046.66
2023-04-02T12:22:54.849Z,100104.50
2023-04-02T12:25:22.879Z,99953.53
2023-04-02T12:27:49.095Z,99777.88
2023-04-02T12:30:19.586Z,99806.84
2023-04-02T12:32:45.875Z,99967.16
2023-04-02T12:35:24.864Z,100180.63
2023-04-02T12:37:52.223Z,100482.47
2023-04-02T12:40:18.560Z,100289.34
2023-04-02T12:42:44.783Z,100029.28
2023-04-02T12:45:21.025Z,100219.69
2023-04-02T12:47:47.298Z,100066.88
2023-04-02T12:50:13.580Z,99958.16
2023-04-02T12:52:42.803Z,100172.44
2023-04-02T12:55:15.371Z,99795.31
2023-04-02T12:57:41.696Z,99791.59
2023-04-02T13:00:20.088Z,99880.38
2023-04-02T13:02:47.607Z,100145.09
2023-04-02T13:05:13.864Z,100158.72
2023-04-02T13:07:40.092Z,99986.84
2023-04-02T13:10:21.437Z,100115.47
2023-04-02T13:12:47.662Z,100073.69
2023-04-02T13:15:26.581Z,100046.63
2023-04-02T13:18:11.964Z,100155.66
2023-04-02T13:20:38.914Z,100216.91
2023-04-02T13:23:24.206Z,100081.91
2023-04-02T13:25:50.440Z,100095.53
2023-04-02T13:28:16.664Z,100278.22
2023-04-02T13:30:42.907Z,100318.41
2023-04-02T13:33:09.146Z,100606.00
2023-04-02T13:35:37.233Z,100817.22
2023-04-02T13:38:03.572Z,100420.13
2023-04-02T13:40:29.802Z,100092.50
2023-04-02T13:42:56.009Z,100086.38
2023-04-02T13:45:22.239Z,100355.06
2023-04-02T13:47:48.515Z,100539.50
2023-04-02T13:50:18.827Z,100683.59
2023-04-02T13:52:45.060Z,100651.84
2023-04-02T13:55:11.266Z,100485.50
2023-04-02T13:57:37.529Z,100435.13
2023-04-02T14:00:04.219Z,100507.28
2023-04-02T14:02:30.454Z,100465.00
2023-04-02T14:05:03.542Z,100528.91
2023-04-02T14:07:29.718Z,100636.19
2023-04-02T14:10:09.325Z,100532.25
2023-04-02T14:12:41.643Z,100554.22
2023-04-02T14:15:16.886Z,100734.97
2023-04-02T14:17:43.134Z,100568.13
2023-04-02T14:20:16.604Z,100635.22
2023-04-02T14:22:50.047Z,100556.25
2023-04-02T14:25:19.215Z,100666.31
2023-04-02T14:28:06.969Z,100903.91
2023-04-02T14:30:39.295Z,100824.06
2023-04-02T14:33:14.518Z,100932.38
2023-04-02T14:35:42.604Z,100888.53
2023-04-02T14:38:14.974Z,100678.06
2023-04-02T14:40:44.727Z,100692.84
2023-04-02T14:43:11.828Z,100507.19
2023-04-02T14:45:51.384Z,100656.41
2023-04-02T14:48:27.949Z,100793.91
2023-04-02T14:50:56.204Z,100655.63
2023-04-02T14:53:37.027Z,100559.53
2023-04-02T14:56:03.665Z,100486.19
2023-04-02T14:58:40.581Z,100676.78
2023-04-02T15:01:20.262Z,100761.88
2023-04-02T15:03:52.859Z,101030.88
2023-04-02T15:06:20.776Z,100995.50
2023-04-02T15:09:09.256Z,100673.88
2023-04-02T15:11:36.586Z,100742.88
2023-04-02T15:14:13.781Z,100717.47
2023-04-02T15:16:40.182Z,100674.00
2023-04-02T15:19:09.968Z,100805.88
2023-04-02T15:21:55.742Z,100891.34
2023-04-02T15:24:41.985Z,100931.38
2023-04-02T15:27:24.453Z,100956.22
2023-04-02T15:30:15.154Z,100869.47
2023-04-02T15:32:41.587Z,100797.13
2023-04-02T15:35:16.977Z,100871.81
2023-04-02T15:37:52.349Z,100937.72
2023-04-02T15:40:40.151Z,100955.13
2023-04-02T15:43:24.991Z,100852.47
2023-04-02T15:46:11.596Z,100762.00
2023-04-02T15:48:44.136Z,100586.81
2023-04-02T15:51:10.531Z,100674.31
2023-04-02T15:53:44.372Z,100715.53
2023-04-02T15:56:25.202Z,100664.00
2023-04-02T15:59:05.905Z,100680.38
2023-04-02T16:01:35.380Z,100715.63
2023-04-02T16:04:20.501Z,100868.63
2023-04-02T16:06:52.931Z,100817.44
2023-04-02T16:09:19.117Z,100889.56
2023-04-02T16:15:01.329Z,101045.00
2023-04-02T16:17:51.975Z,101071.41
2023-04-02T16:20:22.078Z,100991.53
2023-04-02T16:23:00.085Z,100848.09
2023-04-02T16:25:27.585Z,100884.34
2023-04-02T16:28:03.616Z,100960.78
2023-04-02T16:30:49.089Z,101045.59
2023-04-02T16:33:35.848Z,101194.44
2023-04-02T16:36:23.899Z,101176.41
2023-04-02T16:38:57.070Z,101183.00
2023-04-02T16:41:29.412Z,101105.84
2023-04-02T16:43:58.441Z,101192.31
2023-04-02T16:53:26.459Z,101170.28
2023-04-02T16:59:03.412Z,101206.81
2023-04-02T17:04:44.338Z,101463.03
2023-04-02T17:07:13.049Z,101423.31
2023-04-02T17:09:54.586Z,101365.31
2023-04-02T17:12:29.960Z,101403.09
2023-04-02T17:14:59.325Z,101415.41
2023-04-02T17:17:33.965Z,101389.63
2023-04-02T17:42:05.447Z,101851.66
2023-04-02T17:44:50.153Z,101880.97
2023-04-02T17:47:20.387Z,101916.75
2023-04-02T17:49:49.618Z,101942.53
2023-04-02T17:52:18.236Z,101934.94
2023-04-02T17:54:59.596Z,101939.03
2023-04-02T17:57:44.252Z,101992.66
2023-04-02T18:00:16.475Z,102055.53
2023-04-02T18:03:01.452Z,102062.72
2023-04-02T18:05:32.859Z,102088.91
2023-04-02T18:08:25.319Z,102088.97
2023-04-02T18:11:10.437Z,102132.66
2023-04-02T18:13:38.578Z,102170.22
2023-04-02T18:16:04.723Z,102194.53
2023-04-02T18:18:51.547Z,102219.78
2023-04-02T18:21:23.838Z,102229.28
2023-04-02T18:24:13.740Z,102247.72
2023-04-02T18:27:00.168Z,102263.28
2023-04-02T18:29:45.276Z,102290.31
2023-04-02T18:32:43.829Z,102309.97
2023-04-02T18:35:24.811Z,102351.19
2023-04-02T18:37:57.216Z,102376.13
2023-04-02T18:40:42.165Z,102398.91
2023-04-02T18:43:12.700Z,102445.00
2023-04-02T18:45:42.997Z,102443.34
2023-04-02T18:48:13.550Z,102455.00
2023-04-02T18:50:39.933Z,102469.09
2023-04-02T18:53:16.771Z,102482.09
2023-04-02T18:55:45.457Z,102491.41
2023-04-02T18:58:12.978Z,102490.41
2023-04-02T19:00:39.495Z,102504.28
2023-04-02T19:03:13.926Z,102506.13
2023-04-02T19:05:44.476Z,102531.75
2023-04-02T19:08:12.848Z,102537.91
2023-04-02T19:10:39.451Z,102551.94
2023-04-02T19:13:07.788Z,102545.81
2023-04-02T19:15:39.532Z,102558.41
2023-04-02T19:18:11.330Z,102551.28
2023-04-02T19:20:41.667Z,102551.00
2023-04-02T19:23:18.545Z,102561.75
2023-04-02T19:25:47.809Z,102564.81
2023-04-02T19:28:33.775Z,102557.44
2023-04-02T19:31:11.142Z,102553.34
2023-04-02T19:33:56.362Z,102547.88
2023-04-02T19:36:32.050Z,102548.97
2023-04-02T19:39:10.380Z,102551.94
2023-04-02T19:41:41.078Z,102522.34
2023-04-02T19:44:11.911Z,102526.56
2023-04-02T19:46:39.402Z,102526.13
2023-04-02T19:49:29.209Z,102532.22
2023-04-02T19:51:57.138Z,102528.25
2023-04-02T19:54:23.765Z,102527.28
2023-04-02T19:56:50.061Z,102519.06
2023-04-02T19:59:18.775Z,102513.84
2023-04-02T20:01:45.513Z,102507.91
2023-04-02T20:04:11.765Z,102481.00
2023-04-02T20:06:37.984Z,102454.00
2023-04-02T20:09:04.176Z,102419.38
2023-04-02T20:11:30.392Z,102365.78
2023-04-02T20:13:56.631Z,102324.44
2023-04-02T20:16:22.923Z,102315.09
2023-04-02T20:18:49.246Z,102314.44
2023-04-02T20:21:15.473Z,102308.03
2023-04-02T20:23:41.672Z,102317.84
2023-04-02T20:26:07.959Z,102331.50
2023-04-02T20:28:34.251Z,102338.00
2023-04-02T20:31:06.605Z,102366.75
2023-04-02T20:33:32.894Z,102366.53
2023-04-02T20:36:03.193Z,102365.88
2023-04-02T20:38:30.595Z,102359.91
2023-04-02T20:40:57.694Z,102350.25
2023-04-02T20:43:23.891Z,102363.31
2023-04-02T20:45:54.080Z,102370.81
2023-04-02T20:48:20.314Z,102390.72
2023-04-02T20:50:46.537Z,102414.16
2023-04-02T20:53:12.753Z,102434.94
2023-04-02T20:55:38.952Z,102447.91
2023-04-02T20:58:05.160Z,102464.94
2023-04-02T21:00:31.364Z,102484.47
2023-04-02T21:02:59.110Z,102470.34
2023-04-02T21:05:25.348Z,102487.25
2023-04-02T21:07:51.565Z,102492.28
2023-04-02T21:10:17.815Z,102502.31
2023-04-02T21:12:44.050Z,102506.63
2023-04-02T21:15:10.284Z,102498.25
2023-04-02T21:17:36.544Z,102489.53
2023-04-02T21:20:02.880Z,102460.50
2023-04-02T21:22:29.165Z,102436.31
2023-04-02T21:24:55.388Z,102391.66
2023-04-02T21:27:21.624Z,102357.69
2023-04-02T21:29:47.827Z,102308.25
2023-04-02T21:32:21.302Z,102284.09
2023-04-02T21:34:48.061Z,102298.22
2023-04-02T21:37:14.419Z,102305.16
2023-04-02T21:39:41.011Z,102242.84
2023-04-02T21:42:08.143Z,102278.41
2023-04-02T21:44:34.958Z,102328.63
2023-04-02T21:47:07.841Z,102371.34
2023-04-02T21:49:34.432Z,102417.88
2023-04-02T21:52:00.952Z,102433.81
2023-04-02T21:54:27.468Z,102430.66
2023-04-02T21:56:53.809Z,102404.53
2023-04-02T21:59:22.671Z,102395.69
2023-04-02T22:01:53.137Z,102345.84
2023-04-02T22:04:23.175Z,102333.00
2023-04-02T22:06:49.617Z,102281.31
2023-04-02T22:09:18.394Z,102299.66
2023-04-02T22:11:47.539Z,102312.19
2023-04-02T22:14:14.016Z,102298.56
2023-04-02T22:16:45.727Z,102273.28
2023-04-02T22:19:20.771Z,102247.31
2023-04-02T22:21:52.460Z,102225.56
2023-04-02T22:24:27.464Z,102193.34
2023-04-02T22:26:57.987Z,102181.28
2023-04-02T22:29:32.505Z,102167.53
2023-04-02T22:32:01.433Z,102150.84
2023-04-02T22:34:33.425Z,102151.81
2023-04-02T22:43:13.615Z,102151.81
2023-04-02T22:45:45.934Z,102155.03
2023-04-02T22:48:28.958Z,102139.91
2023-04-02T22:53:47.646Z,102113.22
2023-04-02T22:59:53.218Z,102131.34
2023-04-02T23:05:47.420Z,102132.97
2023-04-02T23:17:37.571Z,102089.38
2023-04-02T23:20:21.396Z,102114.13
2023-04-02T23:22:59.582Z,102143.44
2023-04-02T23:25:31.430Z,102150.06
2023-04-02T23:28:09.435Z,102160.91
2023-04-02T23:31:13.445Z,102176.06
2023-04-02T23:34:05.109Z,102173.38
2023-04-02T23:39:37.302Z,102161.47
2023-04-02T23:57:14.886Z,102122.91
